Time;durP1;ratioP1;P1;durP2;ratioP2;P2;SDS_P1;SDS_P2;PMS_P1;PMS_P2;Temp;Humidity;BMP_temperature;BMP_pressure;BME280_temperature;BME280_humidity;BME280_pressure;Samples;Min_cycle;Max_cycle;Signal;HPM_P1;HPM_P2
2021/08/29 00:02:06;;;;;;;7.37;5.13;;;14.70;99.90;;;;;;5030428;28;20232;-64
2021/08/29 00:04:34;;;;;;;5.53;4.63;;;14.70;99.90;;;;;;5023015;28;20286;-63
2021/08/29 00:07:04;;;;;;;5.60;5.00;;;14.70;99.90;;;;;;5023756;28;20323;-64
2021/08/29 00:09:32;;;;;;;6.27;4.50;;;14.70;99.90;;;;;;5022923;28;20260;-64
2021/08/29 00:12:02;;;;;;;7.70;4.50;;;14.70;99.90;;;;;;5031276;28;20600;-64
2021/08/29 00:14:30;;;;;;;7.53;4.50;;;14.70;99.90;;;;;;5045438;28;20315;-64
2021/08/29 00:16:58;;;;;;;5.23;4.40;;;14.60;99.90;;;;;;5045305;28;20239;-64
2021/08/29 00:19:26;;;;;;;4.67;4.10;;;14.60;99.90;;;;;;5043815;28;20773;-64
2021/08/29 00:21:54;;;;;;;4.87;4.30;;;14.60;99.90;;;;;;5045724;28;20228;-64
2021/08/29 00:24:24;;;;;;;8.40;4.37;;;14.70;99.90;;;;;;5035124;28;20319;-64
2021/08/29 00:26:52;;;;;;;4.80;4.20;;;14.60;99.90;;;;;;5021982;28;20298;-64
2021/08/29 00:29:20;;;;;;;5.13;4.30;;;14.60;99.90;;;;;;5024418;28;20278;-63
2021/08/29 00:31:48;;;;;;;5.33;4.07;;;14.60;99.90;;;;;;5033810;28;20248;-64
2021/08/29 00:34:17;;;;;;;5.50;4.43;;;14.60;99.90;;;;;;5018857;28;20256;-63
2021/08/29 00:36:45;;;;;;;7.90;4.40;;;14.60;99.90;;;;;;5020768;28;20232;-64
2021/08/29 00:39:13;;;;;;;7.63;5.00;;;14.60;99.90;;;;;;5041189;28;20308;-63
2021/08/29 00:41:43;;;;;;;6.27;4.70;;;14.60;99.90;;;;;;5020389;28;20286;-64
2021/08/29 00:44:12;;;;;;;6.73;4.50;;;14.60;99.90;;;;;;5024158;28;20240;-63
2021/08/29 00:46:41;;;;;;;7.73;5.33;;;14.60;99.90;;;;;;5018566;28;20264;-63
2021/08/29 00:49:11;;;;;;;7.57;5.47;;;14.60;99.90;;;;;;5025662;28;20236;-64
2021/08/29 00:51:40;;;;;;;6.03;5.20;;;14.60;99.90;;;;;;5025218;28;20259;-63
2021/08/29 00:54:08;;;;;;;6.50;5.03;;;14.60;99.90;;;;;;5025915;28;20247;-63
2021/08/29 00:56:36;;;;;;;6.03;5.30;;;14.60;99.90;;;;;;5022955;28;20240;-64
2021/08/29 00:59:11;;;;;;;7.47;5.50;;;14.60;99.90;;;;;;5013822;28;20705;-64
2021/08/29 01:01:47;;;;;;;6.57;5.40;;;14.60;99.90;;;;;;5016413;28;20247;-64
2021/08/29 01:04:24;;;;;;;6.13;5.20;;;14.60;99.90;;;;;;5019193;28;20285;-64
2021/08/29 01:06:58;;;;;;;9.50;5.57;;;14.50;99.90;;;;;;5041737;28;20282;-64
2021/08/29 01:09:56;;;;;;;6.73;6.03;;;14.50;99.90;;;;;;5017079;28;20621;-64
2021/08/29 01:12:34;;;;;;;7.70;5.80;;;14.50;99.90;;;;;;5023799;28;20648;-63
2021/08/29 01:15:09;;;;;;;7.20;5.60;;;14.50;99.90;;;;;;5024996;28;20235;-64
2021/08/29 01:17:45;;;;;;;6.30;5.53;;;14.50;99.90;;;;;;5034422;28;20314;-64
2021/08/29 01:20:19;;;;;;;8.63;5.63;;;14.60;99.90;;;;;;5024795;28;20236;-63
2021/08/29 01:22:51;;;;;;;6.77;5.20;;;14.60;99.90;;;;;;5020708;28;20379;-64
2021/08/29 01:25:26;;;;;;;7.00;5.60;;;14.60;99.90;;;;;;5030183;28;20315;-63
2021/08/29 01:28:02;;;;;;;8.37;5.77;;;14.60;99.90;;;;;;5034987;28;20263;-64
2021/08/29 01:30:32;;;;;;;7.40;5.40;;;14.50;99.90;;;;;;5029897;28;20294;-64
2021/08/29 01:33:01;;;;;;;7.90;6.13;;;14.60;99.90;;;;;;5037049;28;20668;-63
2021/08/29 01:35:34;;;;;;;8.97;6.07;;;14.50;99.90;;;;;;5031706;28;20715;-64
2021/08/29 01:38:11;;;;;;;7.03;5.53;;;14.50;99.90;;;;;;5024821;28;20733;-63
2021/08/29 01:40:40;;;;;;;7.67;5.60;;;14.50;99.90;;;;;;5039130;28;20260;-63
2021/08/29 01:43:09;;;;;;;6.13;5.50;;;14.50;99.90;;;;;;5024914;28;20271;-64
2021/08/29 01:45:39;;;;;;;8.20;6.30;;;14.50;99.90;;;;;;5024550;28;20267;-63
2021/08/29 01:48:07;;;;;;;8.33;6.53;;;14.40;99.90;;;;;;5028236;28;20270;-64
2021/08/29 01:50:50;;;;;;;7.70;5.87;;;14.40;99.90;;;;;;5019205;28;20316;-64
2021/08/29 01:53:40;;;;;;;7.17;5.90;;;14.50;99.90;;;;;;5022089;28;20232;-63
2021/08/29 01:56:16;;;;;;;6.90;5.93;;;14.50;99.90;;;;;;5043601;28;20239;-64
2021/08/29 01:58:52;;;;;;;7.10;6.17;;;14.50;99.90;;;;;;5032198;28;20425;-63
2021/08/29 02:01:28;;;;;;;7.60;5.90;;;14.50;99.90;;;;;;5029623;28;20269;-63
2021/08/29 02:04:02;;;;;;;8.67;6.17;;;14.50;99.90;;;;;;5029498;28;20236;-63
2021/08/29 02:06:37;;;;;;;7.20;6.00;;;14.50;99.90;;;;;;5029737;28;20294;-63
2021/08/29 02:09:10;;;;;;;8.10;6.20;;;14.50;99.90;;;;;;5026701;28;20240;-64
2021/08/29 02:11:44;;;;;;;7.30;5.83;;;14.40;99.90;;;;;;5042310;28;20236;-63
2021/08/29 02:14:20;;;;;;;7.63;6.00;;;14.40;99.90;;;;;;5028520;28;20233;-63
2021/08/29 02:16:50;;;;;;;7.30;5.50;;;14.40;99.90;;;;;;5018244;28;20244;-64
2021/08/29 02:19:23;;;;;;;9.17;6.30;;;14.40;99.90;;;;;;5038320;28;20575;-64
2021/08/29 02:21:54;;;;;;;9.20;6.53;;;14.40;99.90;;;;;;5051117;28;20235;-64
2021/08/29 02:24:24;;;;;;;9.67;6.10;;;14.40;99.90;;;;;;5046855;28;20282;-63
2021/08/29 02:26:54;;;;;;;6.87;6.00;;;14.40;99.90;;;;;;5047628;28;20304;-63
2021/08/29 02:29:22;;;;;;;7.70;6.53;;;14.40;99.90;;;;;;5047476;28;20587;-63
2021/08/29 02:31:52;;;;;;;7.03;6.33;;;14.40;99.90;;;;;;5049267;28;20243;-64
2021/08/29 02:34:22;;;;;;;8.17;6.17;;;14.40;99.90;;;;;;5046941;28;20235;-63
2021/08/29 02:36:54;;;;;;;7.00;5.97;;;14.40;99.90;;;;;;5047517;28;20246;-64
2021/08/29 02:39:36;;;;;;;8.37;6.20;;;14.40;99.90;;;;;;5046712;28;20239;-64
2021/08/29 02:42:07;;;;;;;8.27;6.10;;;14.40;99.90;;;;;;5063992;28;20238;-63
2021/08/29 02:44:41;;;;;;;6.77;6.07;;;14.40;99.90;;;;;;5050853;28;20308;-64
2021/08/29 02:47:13;;;;;;;7.07;6.23;;;14.40;99.90;;;;;;5047127;28;20247;-64
2021/08/29 02:49:43;;;;;;;7.80;5.90;;;14.40;99.90;;;;;;5048355;28;20232;-63
2021/08/29 02:52:13;;;;;;;6.80;5.77;;;14.50;99.90;;;;;;5047215;28;20236;-63
2021/08/29 02:54:42;;;;;;;7.93;5.77;;;14.40;99.90;;;;;;5063193;28;20265;-63
2021/08/29 02:57:12;;;;;;;7.83;5.70;;;14.40;99.90;;;;;;5047278;28;20249;-63
2021/08/29 02:59:46;;;;;;;6.87;5.50;;;14.40;99.90;;;;;;5045837;28;20241;-63
2021/08/29 03:02:16;;;;;;;5.93;5.20;;;14.40;99.90;;;;;;5063048;28;20711;-63
2021/08/29 03:04:45;;;;;;;6.77;5.87;;;14.40;99.90;;;;;;5047932;28;20246;-63
2021/08/29 03:07:13;;;;;;;6.43;5.37;;;14.40;99.90;;;;;;5046863;28;20234;-64
2021/08/29 03:09:42;;;;;;;7.87;5.83;;;14.40;99.90;;;;;;5046797;28;20330;-63
2021/08/29 03:12:12;;;;;;;6.67;5.60;;;14.40;99.90;;;;;;5046460;28;20337;-63
2021/08/29 03:14:59;;;;;;;7.23;5.17;;;14.40;99.90;;;;;;5047583;28;20247;-64
2021/08/29 03:17:30;;;;;;;6.47;5.33;;;14.40;99.90;;;;;;5047062;28;20633;-64
2021/08/29 03:20:07;;;;;;;6.87;5.30;;;14.40;99.90;;;;;;5033225;28;20709;-63
2021/08/29 03:22:45;;;;;;;5.43;4.93;;;14.40;99.90;;;;;;5029412;28;20255;-63
2021/08/29 03:25:14;;;;;;;7.27;5.30;;;14.40;99.90;;;;;;5041234;28;20256;-64
2021/08/29 03:27:43;;;;;;;6.20;4.67;;;14.40;99.90;;;;;;5021572;28;20227;-64
2021/08/29 03:30:12;;;;;;;5.70;5.20;;;14.50;99.90;;;;;;5024878;28;20248;-64
2021/08/29 03:32:42;;;;;;;5.20;4.70;;;14.50;99.90;;;;;;5020417;28;20236;-64
2021/08/29 03:35:18;;;;;;;5.20;4.70;;;14.50;99.90;;;;;;5034953;28;20228;-63
2021/08/29 03:37:54;;;;;;;6.43;4.93;;;14.40;99.90;;;;;;5038772;28;20236;-64
2021/08/29 03:40:23;;;;;;;5.40;4.70;;;14.40;99.90;;;;;;5021083;28;20228;-63
2021/08/29 03:42:53;;;;;;;4.70;4.30;;;14.40;99.90;;;;;;5019015;28;20602;-63
2021/08/29 03:45:21;;;;;;;5.77;4.40;;;14.40;99.90;;;;;;5022595;28;20318;-64
2021/08/29 03:47:52;;;;;;;5.20;4.27;;;14.40;99.90;;;;;;5033458;28;20244;-63
2021/08/29 03:50:22;;;;;;;5.10;4.30;;;14.40;99.90;;;;;;5038253;28;20240;-64
2021/08/29 03:52:51;;;;;;;4.60;4.20;;;14.40;99.90;;;;;;5023043;28;20298;-64
2021/08/29 03:55:25;;;;;;;5.17;4.43;;;14.50;99.90;;;;;;5021627;28;20371;-64
2021/08/29 03:57:56;;;;;;;5.10;4.60;;;14.50;99.90;;;;;;5024227;28;20595;-64
2021/08/29 04:00:32;;;;;;;5.43;4.37;;;14.40;99.90;;;;;;5025377;28;20294;-63
2021/08/29 04:03:08;;;;;;;5.23;4.53;;;14.50;99.90;;;;;;5027050;28;20224;-64
2021/08/29 04:05:52;;;;;;;5.57;5.00;;;14.50;99.90;;;;;;5027696;28;20236;-64
2021/08/29 04:08:28;;;;;;;4.70;4.17;;;14.50;99.90;;;;;;5021467;28;20307;-64
2021/08/29 04:11:00;;;;;;;4.57;4.17;;;14.50;99.90;;;;;;5051215;28;20269;-64
2021/08/29 04:13:32;;;;;;;4.63;4.13;;;14.50;99.90;;;;;;5019339;28;20668;-64
2021/08/29 04:16:12;;;;;;;4.90;4.40;;;14.50;99.90;;;;;;5039836;28;20785;-64
2021/08/29 04:18:47;;;;;;;5.47;4.80;;;14.60;99.90;;;;;;5040480;28;20315;-64
2021/08/29 04:21:22;;;;;;;6.20;4.93;;;14.50;99.90;;;;;;5025254;28;20313;-63
2021/08/29 04:23:51;;;;;;;5.90;5.30;;;14.50;99.90;;;;;;5037051;28;20236;-64
2021/08/29 04:26:22;;;;;;;5.17;4.63;;;14.50;99.90;;;;;;5039458;28;20616;-64
2021/08/29 04:28:51;;;;;;;7.30;5.20;;;14.40;99.90;;;;;;5024718;28;20757;-64
2021/08/29 04:31:24;;;;;;;7.10;5.30;;;14.40;99.90;;;;;;5023754;28;20856;-64
2021/08/29 04:34:01;;;;;;;6.53;5.53;;;14.40;99.90;;;;;;5022010;28;20239;-64
2021/08/29 04:36:37;;;;;;;5.40;4.90;;;14.40;99.90;;;;;;5030620;28;20232;-63
2021/08/29 04:39:20;;;;;;;5.87;5.27;;;14.50;99.90;;;;;;5023093;28;20236;-64
2021/08/29 04:41:48;;;;;;;5.47;4.97;;;14.50;99.90;;;;;;5040355;28;20236;-64
2021/08/29 04:44:17;;;;;;;7.13;5.93;;;14.40;99.90;;;;;;5023181;28;20673;-63
2021/08/29 04:46:45;;;;;;;6.50;5.90;;;14.40;99.90;;;;;;5041032;28;20236;-64
2021/08/29 04:49:14;;;;;;;6.70;6.00;;;14.40;99.90;;;;;;5039604;28;20742;-64
2021/08/29 04:51:43;;;;;;;10.27;6.00;;;14.40;99.90;;;;;;5020989;28;20232;-63
2021/08/29 04:54:12;;;;;;;6.37;5.70;;;14.40;99.90;;;;;;5040206;28;20272;-64
2021/08/29 04:56:40;;;;;;;8.07;5.77;;;14.50;99.90;;;;;;5030784;28;20247;-64
2021/08/29 04:59:11;;;;;;;8.37;6.27;;;14.50;99.90;;;;;;5025859;28;20267;-64
2021/08/29 05:01:42;;;;;;;6.10;5.20;;;14.50;99.90;;;;;;5035270;28;20262;-64
2021/08/29 05:04:11;;;;;;;7.80;6.20;;;14.50;99.90;;;;;;5018988;28;20263;-64
2021/08/29 05:06:40;;;;;;;6.60;5.77;;;14.50;99.90;;;;;;5021599;28;20253;-64
2021/08/29 05:09:11;;;;;;;6.97;6.07;;;14.50;99.90;;;;;;5018333;28;20677;-64
2021/08/29 05:11:41;;;;;;;7.73;6.10;;;14.60;99.90;;;;;;5022608;28;20243;-64
2021/08/29 05:14:09;;;;;;;7.40;6.27;;;14.60;99.90;;;;;;5020770;28;20241;-63
2021/08/29 05:16:38;;;;;;;8.43;6.47;;;14.60;99.90;;;;;;5018250;28;20696;-64
2021/08/29 05:19:07;;;;;;;9.73;6.70;;;14.60;99.90;;;;;;5023687;28;20232;-64
2021/08/29 05:21:35;;;;;;;8.07;7.07;;;14.60;99.90;;;;;;5021075;28;20268;-64
2021/08/29 05:24:12;;;;;;;8.50;7.37;;;14.50;99.90;;;;;;5040708;28;20237;-64
2021/08/29 05:26:54;;;;;;;11.53;7.33;;;14.50;99.90;;;;;;5027364;28;20322;-64
2021/08/29 05:29:22;;;;;;;11.33;8.23;;;14.50;99.90;;;;;;5027302;28;20592;-64
2021/08/29 05:31:54;;;;;;;9.47;8.00;;;14.50;99.90;;;;;;5042234;28;20240;-64
2021/08/29 05:34:31;;;;;;;11.20;8.23;;;14.50;99.90;;;;;;5051940;28;20495;-64
2021/08/29 05:37:00;;;;;;;9.17;8.13;;;14.60;99.90;;;;;;5053157;28;20239;-64
2021/08/29 05:39:35;;;;;;;12.60;8.23;;;14.50;99.90;;;;;;5053162;28;20718;-64
2021/08/29 05:42:06;;;;;;;11.33;8.97;;;14.50;99.90;;;;;;5073403;28;20231;-64
2021/08/29 05:44:44;;;;;;;11.10;8.83;;;14.50;99.90;;;;;;5047598;28;20272;-64
2021/08/29 05:47:13;;;;;;;12.33;9.13;;;14.50;99.90;;;;;;5049494;28;20320;-63
2021/08/29 05:49:42;;;;;;;11.23;8.93;;;14.50;99.90;;;;;;5047644;28;20235;-64
2021/08/29 05:52:10;;;;;;;12.80;9.23;;;14.50;99.90;;;;;;5047717;28;20301;-64
2021/08/29 05:54:40;;;;;;;12.53;9.03;;;14.50;99.90;;;;;;5050349;28;20621;-64
2021/08/29 05:57:08;;;;;;;11.47;9.17;;;14.50;99.90;;;;;;5048247;28;20749;-63
2021/08/29 05:59:36;;;;;;;14.60;10.13;;;14.50;99.90;;;;;;5049041;28;20625;-63
2021/08/29 06:02:05;;;;;;;11.07;8.80;;;14.60;99.90;;;;;;5047078;28;20238;-64
2021/08/29 06:04:36;;;;;;;11.87;8.10;;;14.50;99.90;;;;;;5046721;28;20236;-64
2021/08/29 06:07:13;;;;;;;13.67;8.67;;;14.60;99.90;;;;;;5062462;28;20234;-63
2021/08/29 06:09:48;;;;;;;11.77;8.37;;;14.60;99.90;;;;;;5046364;28;20231;-64
2021/08/29 06:12:16;;;;;;;10.23;8.00;;;14.60;99.90;;;;;;5044602;28;20489;-64
2021/08/29 06:14:44;;;;;;;11.20;8.27;;;14.60;99.90;;;;;;5028887;28;20749;-64
2021/08/29 06:17:13;;;;;;;11.10;8.20;;;14.60;99.90;;;;;;5041654;28;20228;-64
2021/08/29 06:19:41;;;;;;;10.47;7.80;;;14.60;99.90;;;;;;5063224;28;20239;-64
2021/08/29 06:22:09;;;;;;;13.10;7.90;;;14.60;99.90;;;;;;5047926;28;20251;-64
2021/08/29 06:24:55;;;;;;;9.67;7.30;;;14.60;99.90;;;;;;5063903;28;20259;-64
2021/08/29 06:27:43;;;;;;;10.03;7.27;;;14.60;99.90;;;;;;5048510;28;20240;-64
2021/08/29 06:30:30;;;;;;;8.90;7.57;;;14.70;99.90;;;;;;5048923;28;20447;-63
2021/08/29 06:33:27;;;;;;;9.30;7.30;;;14.70;99.90;;;;;;5040255;28;20239;-64
2021/08/29 06:36:00;;;;;;;10.43;7.37;;;14.70;99.90;;;;;;5047575;28;20236;-64
2021/08/29 06:38:29;;;;;;;10.47;7.23;;;14.70;99.90;;;;;;5048029;28;20242;-64
2021/08/29 06:41:00;;;;;;;10.07;7.27;;;14.70;99.90;;;;;;5046863;28;20235;-64
2021/08/29 06:43:29;;;;;;;10.63;7.33;;;14.80;99.90;;;;;;5043503;28;20243;-64
2021/08/29 06:45:57;;;;;;;11.53;7.80;;;14.80;99.90;;;;;;5048307;28;20314;-64
2021/08/29 06:48:44;;;;;;;9.63;6.97;;;14.80;99.90;;;;;;5046826;28;20580;-64
2021/08/29 06:51:50;;;;;;;8.90;7.03;;;14.70;99.90;;;;;;5024427;28;20240;-64
2021/08/29 06:54:21;;;;;;;12.40;7.13;;;14.80;99.90;;;;;;5024699;28;20670;-64
2021/08/29 06:57:27;;;;;;;9.80;7.27;;;14.90;99.90;;;;;;5041364;28;20255;-64
2021/08/29 06:59:55;;;;;;;8.63;6.37;;;14.90;99.90;;;;;;5047906;28;20231;-64
2021/08/29 07:02:23;;;;;;;9.47;5.73;;;14.90;99.90;;;;;;5045702;28;20765;-64
2021/08/29 07:04:52;;;;;;;6.20;5.57;;;14.90;99.90;;;;;;5047615;28;20232;-63
2021/08/29 07:07:20;;;;;;;7.33;5.17;;;14.90;99.90;;;;;;5046462;28;20246;-64
2021/08/29 07:10:27;;;;;;;6.83;5.47;;;14.90;99.90;;;;;;5036757;28;20247;-64
2021/08/29 07:13:15;;;;;;;8.97;5.13;;;14.90;99.90;;;;;;5042958;28;20381;-64
2021/08/29 07:15:43;;;;;;;9.00;5.40;;;14.80;99.90;;;;;;5030909;28;20243;-64
2021/08/29 07:18:12;;;;;;;6.43;4.70;;;14.80;99.90;;;;;;5026145;28;20595;-64
2021/08/29 07:21:02;;;;;;;5.80;4.80;;;14.90;99.90;;;;;;5009211;28;20604;-64
2021/08/29 07:23:49;;;;;;;5.63;4.90;;;14.90;99.90;;;;;;5006576;28;20413;-64
2021/08/29 07:26:36;;;;;;;5.57;4.93;;;15.00;99.90;;;;;;5002048;28;20321;-64
2021/08/29 07:29:24;;;;;;;6.27;5.20;;;15.00;99.90;;;;;;4997252;28;20247;-64
2021/08/29 07:32:10;;;;;;;8.43;5.20;;;15.00;99.90;;;;;;5002915;28;20275;-64
2021/08/29 07:34:40;;;;;;;6.57;5.00;;;15.10;99.90;;;;;;5000289;28;20327;-64
2021/08/29 07:37:27;;;;;;;7.07;5.40;;;15.10;99.90;;;;;;5005929;28;20287;-64
2021/08/29 07:39:55;;;;;;;5.10;4.60;;;15.20;99.90;;;;;;5017414;28;20693;-64
2021/08/29 07:42:24;;;;;;;5.20;4.70;;;15.10;99.90;;;;;;5021235;28;20250;-64
2021/08/29 07:44:53;;;;;;;5.10;4.60;;;15.20;99.90;;;;;;5017736;28;20283;-64
2021/08/29 07:47:29;;;;;;;7.13;4.07;;;15.20;99.90;;;;;;5028478;28;20247;-64
2021/08/29 07:50:00;;;;;;;6.90;4.40;;;15.20;99.90;;;;;;5028732;28;20247;-64
2021/08/29 07:52:28;;;;;;;4.97;4.37;;;15.20;99.90;;;;;;5045767;28;20228;-64
2021/08/29 07:55:14;;;;;;;4.77;4.20;;;15.30;99.90;;;;;;5031208;28;20722;-65
2021/08/29 07:57:48;;;;;;;6.00;4.17;;;15.40;99.90;;;;;;5030464;28;20359;-64
2021/08/29 08:00:29;;;;;;;4.00;3.60;;;15.40;99.90;;;;;;5026579;28;20746;-64
2021/08/29 08:03:18;;;;;;;4.53;4.00;;;15.40;99.90;;;;;;5025614;28;20224;-64
2021/08/29 08:06:05;;;;;;;3.97;3.57;;;15.40;99.90;;;;;;5028646;28;20646;-64
2021/08/29 08:08:45;;;;;;;6.23;3.27;;;15.40;99.90;;;;;;5029577;28;20244;-64
2021/08/29 08:11:34;;;;;;;5.37;3.43;;;15.50;99.90;;;;;;5025459;28;20559;-64
2021/08/29 08:14:02;;;;;;;4.37;3.63;;;15.50;99.90;;;;;;5027430;28;20239;-64
2021/08/29 08:16:32;;;;;;;4.50;3.67;;;15.60;99.90;;;;;;5027927;28;20240;-65
2021/08/29 08:19:05;;;;;;;3.67;3.37;;;15.60;99.90;;;;;;5027173;28;20707;-64
2021/08/29 08:21:33;;;;;;;4.17;3.60;;;15.70;99.90;;;;;;5043929;28;20297;-64
2021/08/29 08:24:19;;;;;;;3.50;3.20;;;15.60;99.90;;;;;;5029234;28;20246;-64
2021/08/29 08:27:07;;;;;;;3.50;3.20;;;15.70;99.90;;;;;;5029172;28;20273;-64
2021/08/29 08:29:53;;;;;;;4.97;3.87;;;15.70;99.90;;;;;;5026840;28;20250;-64
2021/08/29 08:32:42;;;;;;;5.60;3.33;;;15.70;99.90;;;;;;5029807;28;20289;-64
2021/08/29 08:35:42;;;;;;;3.43;3.13;;;15.80;99.90;;;;;;5039675;28;20314;-64
2021/08/29 08:38:23;;;;;;;4.33;3.50;;;15.70;99.90;;;;;;5028239;28;20246;-64
2021/08/29 08:41:10;;;;;;;3.57;3.03;;;15.80;99.90;;;;;;5042511;28;20239;-64
2021/08/29 08:43:57;;;;;;;3.90;3.13;;;15.80;99.90;;;;;;5047091;28;20317;-64
2021/08/29 08:46:45;;;;;;;3.40;2.97;;;15.90;99.90;;;;;;5052234;28;20273;-64
2021/08/29 08:49:54;;;;;;;3.60;2.80;;;15.90;99.90;;;;;;5001435;28;20732;-64
2021/08/29 08:52:42;;;;;;;4.33;3.30;;;15.90;99.90;;;;;;5035690;28;20238;-64
2021/08/29 08:55:30;;;;;;;3.37;2.90;;;15.90;99.90;;;;;;5039032;28;20243;-64
2021/08/29 08:58:18;;;;;;;3.27;2.50;;;15.90;99.90;;;;;;5045686;28;20652;-64
2021/08/29 09:01:20;;;;;;;2.63;2.40;;;16.00;99.90;;;;;;1784496;28;10023492;-64
2021/08/29 09:04:05;;;;;;;3.73;2.90;;;16.00;99.90;;;;;;4709648;28;10000688;-64
2021/08/29 09:06:42;;;;;;;3.30;2.83;;;16.10;99.90;;;;;;5053149;28;20232;-64
2021/08/29 09:09:12;;;;;;;3.47;2.67;;;16.10;99.90;;;;;;5069809;28;20631;-64
2021/08/29 09:11:44;;;;;;;3.00;2.50;;;16.10;99.90;;;;;;5057981;28;20259;-63
2021/08/29 09:14:12;;;;;;;3.43;2.50;;;16.10;99.90;;;;;;5047643;28;20346;-63
2021/08/29 09:16:40;;;;;;;3.17;2.87;;;16.20;99.90;;;;;;5059388;28;20231;-63
2021/08/29 09:19:10;;;;;;;2.60;2.40;;;16.20;99.90;;;;;;5032240;28;20298;-63
2021/08/29 09:21:47;;;;;;;3.10;2.10;;;16.20;99.90;;;;;;5038432;28;20227;-64
2021/08/29 09:24:30;;;;;;;2.90;2.60;;;16.30;99.90;;;;;;5058661;28;20478;-64
2021/08/29 09:27:12;;;;;;;2.23;2.10;;;16.30;99.90;;;;;;5015339;28;20241;-63
2021/08/29 09:29:50;;;;;;;2.97;2.73;;;16.40;99.90;;;;;;5013989;28;20704;-63
2021/08/29 09:32:20;;;;;;;2.37;2.23;;;16.40;99.90;;;;;;5004996;28;20313;-63
2021/08/29 09:35:02;;;;;;;2.40;2.20;;;16.40;99.90;;;;;;5033681;28;20655;-64
2021/08/29 09:37:59;;;;;;;2.67;2.47;;;16.40;99.90;;;;;;5019629;28;20283;-63
2021/08/29 09:41:21;;;;;;;2.13;1.93;;;16.40;99.90;;;;;;5031027;28;20228;-63
2021/08/29 09:44:22;;;;;;;3.50;2.40;;;16.50;99.90;;;;;;5030145;28;20560;-63
2021/08/29 09:47:12;;;;;;;3.50;2.37;;;16.50;99.90;;;;;;5033955;28;20616;-64
2021/08/29 09:50:05;;;;;;;2.80;2.50;;;16.60;99.90;;;;;;4999987;28;20312;-64
2021/08/29 09:52:42;;;;;;;2.40;2.20;;;16.70;99.90;;;;;;5006049;28;20386;-64
2021/08/29 09:55:28;;;;;;;3.23;2.30;;;16.70;99.90;;;;;;5013240;28;20455;-64
2021/08/29 09:58:24;;;;;;;2.40;2.20;;;16.60;99.90;;;;;;5034303;28;20314;-63
2021/08/29 10:01:18;;;;;;;2.67;2.20;;;16.70;99.90;;;;;;5033686;28;20235;-64
2021/08/29 10:04:18;;;;;;;3.00;2.30;;;16.70;99.90;;;;;;5031401;28;20335;-64
2021/08/29 10:06:47;;;;;;;3.23;2.33;;;16.80;99.90;;;;;;5033907;28;20310;-63
2021/08/29 10:09:25;;;;;;;2.03;1.80;;;16.80;99.90;;;;;;5038933;28;20618;-63
2021/08/29 10:12:04;;;;;;;2.33;2.10;;;16.80;99.90;;;;;;5043424;28;20504;-64
2021/08/29 10:14:33;;;;;;;2.37;2.00;;;16.80;99.90;;;;;;5031391;28;20239;-63
2021/08/29 10:17:22;;;;;;;2.80;2.33;;;16.90;99.90;;;;;;5006950;28;20699;-63
2021/08/29 10:20:20;;;;;;;2.63;2.43;;;17.00;99.90;;;;;;5031688;28;20231;-63
2021/08/29 10:23:06;;;;;;;2.93;2.23;;;17.10;99.90;;;;;;5030305;28;20242;-64
2021/08/29 10:25:38;;;;;;;2.57;2.13;;;17.30;99.90;;;;;;5032540;28;20228;-64
2021/08/29 10:28:38;;;;;;;2.83;2.40;;;17.30;99.90;;;;;;5034641;28;20240;-64
2021/08/29 10:31:34;;;;;;;2.73;2.30;;;17.20;99.90;;;;;;5034624;28;20240;-64
2021/08/29 10:34:14;;;;;;;2.53;2.33;;;17.20;99.90;;;;;;5029811;28;20326;-63
2021/08/29 10:36:43;;;;;;;4.23;2.90;;;17.30;99.90;;;;;;5033125;28;20312;-63
2021/08/29 10:39:30;;;;;;;3.17;2.50;;;17.30;99.90;;;;;;5034123;28;20254;-63
2021/08/29 10:42:17;;;;;;;3.40;2.70;;;17.20;99.90;;;;;;5031601;28;20384;-64
2021/08/29 10:45:08;;;;;;;4.40;2.80;;;17.20;99.90;;;;;;5021332;28;20245;-63
2021/08/29 10:47:55;;;;;;;3.00;2.70;;;17.20;99.90;;;;;;5033933;28;20245;-64
2021/08/29 10:50:27;;;;;;;4.43;2.63;;;17.20;99.90;;;;;;5034073;28;20237;-64
2021/08/29 10:52:56;;;;;;;2.80;2.60;;;17.20;99.90;;;;;;5031278;28;20712;-63
2021/08/29 10:55:30;;;;;;;3.50;2.93;;;17.20;99.90;;;;;;5032167;28;20306;-64
2021/08/29 10:58:03;;;;;;;3.30;3.00;;;17.20;99.90;;;;;;5031787;28;20255;-63
2021/08/29 11:00:34;;;;;;;3.10;2.77;;;17.20;99.90;;;;;;5032696;28;20326;-64
2021/08/29 11:03:29;;;;;;;3.30;3.00;;;17.20;99.90;;;;;;5044950;28;20236;-63
2021/08/29 11:06:46;;;;;;;4.07;3.67;;;17.30;99.90;;;;;;5029364;28;20354;-64
2021/08/29 11:09:45;;;;;;;4.87;4.07;;;17.30;99.90;;;;;;5031684;28;20339;-63
2021/08/29 11:12:31;;;;;;;4.30;3.77;;;17.30;99.90;;;;;;5029256;28;20235;-63
2021/08/29 11:15:05;;;;;;;5.00;4.00;;;17.30;99.90;;;;;;5030789;28;20884;-64
2021/08/29 11:17:37;;;;;;;5.83;4.37;;;17.30;99.90;;;;;;5047986;28;20297;-63
2021/08/29 11:20:18;;;;;;;5.33;4.77;;;17.30;99.90;;;;;;5032686;28;20722;-63
2021/08/29 11:23:53;;;;;;;5.83;5.23;;;17.30;99.90;;;;;;5013020;28;20622;-64
2021/08/29 11:26:28;;;;;;;6.53;5.50;;;17.30;99.90;;;;;;5007753;28;20584;-63
2021/08/29 11:29:53;;;;;;;7.00;6.20;;;17.30;99.90;;;;;;5006914;28;20449;-63
2021/08/29 11:32:36;;;;;;;8.13;6.47;;;17.20;99.90;;;;;;4998882;28;20815;-64
2021/08/29 11:35:09;;;;;;;6.83;6.13;;;17.20;99.90;;;;;;5004320;28;20249;-63
2021/08/29 11:38:02;;;;;;;9.57;6.87;;;17.20;99.90;;;;;;5016506;28;20975;-63
2021/08/29 11:40:56;;;;;;;7.47;6.60;;;17.10;99.90;;;;;;5025643;28;20643;-63
2021/08/29 11:43:38;;;;;;;7.67;6.80;;;17.20;99.90;;;;;;5013358;28;20240;-64
2021/08/29 11:46:14;;;;;;;9.73;7.43;;;17.10;99.90;;;;;;5020195;28;20593;-63
2021/08/29 11:49:04;;;;;;;8.00;7.20;;;17.20;99.90;;;;;;5009677;28;20248;-63
2021/08/29 11:51:44;;;;;;;7.93;7.13;;;17.20;99.90;;;;;;5005587;28;20241;-63
2021/08/29 11:54:20;;;;;;;8.73;6.77;;;17.30;99.90;;;;;;5020395;28;20235;-63
2021/08/29 11:57:01;;;;;;;8.27;6.50;;;17.40;99.90;;;;;;5011450;28;20241;-64
2021/08/29 11:59:31;;;;;;;8.33;6.67;;;17.50;99.90;;;;;;5005264;28;20855;-63
2021/08/29 12:02:10;;;;;;;7.60;6.87;;;17.60;99.90;;;;;;5008038;28;20536;-64
2021/08/29 12:04:53;;;;;;;8.77;6.87;;;17.60;99.90;;;;;;5005723;28;20989;-64
2021/08/29 12:07:48;;;;;;;7.43;6.57;;;17.60;99.90;;;;;;5003685;28;20251;-63
2021/08/29 12:10:36;;;;;;;8.20;6.50;;;17.60;99.90;;;;;;5010952;28;20601;-64
2021/08/29 12:13:33;;;;;;;7.13;6.43;;;17.60;99.90;;;;;;4989992;28;20748;-64
2021/08/29 12:16:26;;;;;;;7.20;6.50;;;17.60;99.90;;;;;;5027543;28;20679;-64
2021/08/29 12:18:58;;;;;;;7.70;6.47;;;17.50;99.90;;;;;;5039384;28;20232;-64
2021/08/29 12:22:07;;;;;;;7.10;6.37;;;17.60;99.90;;;;;;5032174;28;21368;-63
2021/08/29 12:25:00;;;;;;;8.63;6.47;;;17.70;99.90;;;;;;5031701;28;20695;-63
2021/08/29 12:27:28;;;;;;;6.93;6.20;;;17.90;99.90;;;;;;5032147;28;20240;-64
2021/08/29 12:29:58;;;;;;;6.43;5.77;;;18.00;99.90;;;;;;5053229;28;20771;-64
2021/08/29 12:32:28;;;;;;;6.07;5.53;;;18.00;99.90;;;;;;5052358;28;20249;-64
2021/08/29 12:34:58;;;;;;;6.57;4.87;;;18.30;99.90;;;;;;5050622;28;20992;-63
2021/08/29 12:37:32;;;;;;;6.77;5.33;;;18.50;99.90;;;;;;5049105;28;20402;-64
2021/08/29 12:40:04;;;;;;;6.60;5.20;;;18.70;99.90;;;;;;5032659;28;20689;-63
2021/08/29 12:42:35;;;;;;;5.23;4.63;;;18.80;99.90;;;;;;5032306;28;20320;-63
2021/08/29 12:45:12;;;;;;;5.17;4.67;;;18.70;99.90;;;;;;5029063;28;20310;-63
2021/08/29 12:47:41;;;;;;;5.00;4.47;;;18.70;99.90;;;;;;5026423;28;20362;-64
2021/08/29 12:50:11;;;;;;;4.63;4.13;;;18.70;99.90;;;;;;5019456;28;20252;-63
2021/08/29 12:52:44;;;;;;;4.40;4.00;;;18.60;99.90;;;;;;5027018;28;20247;-63
2021/08/29 12:55:12;;;;;;;4.47;3.70;;;18.60;99.90;;;;;;5028823;28;20680;-63
2021/08/29 12:57:41;;;;;;;4.40;4.00;;;18.60;99.90;;;;;;5027223;28;20245;-63
2021/08/29 13:00:10;;;;;;;4.13;3.73;;;18.80;99.90;;;;;;5029553;28;20923;-63
2021/08/29 13:02:40;;;;;;;4.30;3.90;;;18.80;99.90;;;;;;5017873;28;21309;-63
2021/08/29 13:05:10;;;;;;;3.67;3.37;;;18.80;99.90;;;;;;5029688;28;20272;-64
2021/08/29 13:07:50;;;;;;;3.90;3.30;;;18.90;99.90;;;;;;5025198;28;20238;-64
2021/08/29 13:10:20;;;;;;;4.90;3.80;;;18.90;99.90;;;;;;5029524;28;20246;-64
2021/08/29 13:13:02;;;;;;;4.70;4.20;;;18.70;99.90;;;;;;5006703;28;20432;-64
2021/08/29 13:15:30;;;;;;;4.40;4.00;;;18.60;99.90;;;;;;5030514;28;20318;-63
2021/08/29 13:17:58;;;;;;;5.07;4.30;;;18.60;99.90;;;;;;5031405;28;20248;-63
2021/08/29 13:20:38;;;;;;;4.30;3.90;;;18.50;99.90;;;;;;5029972;28;20330;-63
2021/08/29 13:23:22;;;;;;;5.17;4.40;;;18.40;99.90;;;;;;5016170;28;20267;-64
2021/08/29 13:25:52;;;;;;;4.93;3.97;;;18.40;99.90;;;;;;5004095;28;20950;-63
2021/08/29 13:28:20;;;;;;;5.47;4.40;;;18.50;99.90;;;;;;5002964;28;20243;-63
2021/08/29 13:30:48;;;;;;;5.67;4.43;;;18.60;99.90;;;;;;5002570;28;20309;-63
2021/08/29 13:33:20;;;;;;;4.60;4.20;;;18.70;99.90;;;;;;5011660;28;20232;-63
2021/08/29 13:35:49;;;;;;;5.40;4.23;;;18.80;99.90;;;;;;5016807;28;20218;-63